Time;durP1;ratioP1;P1;durP2;ratioP2;P2;SDS_P1;SDS_P2;PMS_P1;PMS_P2;Temp;Humidity;BMP_temperature;BMP_pressure;BME280_temperature;BME280_humidity;BME280_pressure;Samples;Min_cycle;Max_cycle;Signal;HPM_P1;HPM_P2
2022/06/14 00:01:10;;;;;;;3.90;1.40;;;;;;;17.11;61.29;100369.47;5019688;28;20040;-73
2022/06/14 00:03:41;;;;;;;3.08;1.42;;;;;;;17.00;61.55;100369.00;5030313;28;20037;-73
2022/06/14 00:06:12;;;;;;;3.80;1.70;;;;;;;17.05;61.36;100374.38;5032763;28;20535;-74
2022/06/14 00:08:38;;;;;;;4.20;1.65;;;;;;;17.07;60.96;100377.63;5047905;28;20077;-75
2022/06/14 00:11:07;;;;;;;2.28;1.60;;;;;;;16.96;61.34;100378.31;5041743;28;20057;-75
2022/06/14 00:13:33;;;;;;;2.03;1.40;;;;;;;16.91;61.13;100379.31;5050652;28;20120;-76
2022/06/14 00:15:59;;;;;;;2.83;1.45;;;;;;;16.85;61.90;100384.22;5050687;28;20513;-75
2022/06/14 00:18:24;;;;;;;3.58;1.80;;;;;;;16.89;61.80;100389.91;5035448;28;20038;-75
2022/06/14 00:20:50;;;;;;;3.78;1.90;;;;;;;16.87;62.14;100389.44;5033570;28;20098;-75
2022/06/14 00:23:16;;;;;;;5.20;2.00;;;;;;;16.90;62.05;100394.31;5050771;28;20041;-75
2022/06/14 00:25:45;;;;;;;3.25;2.10;;;;;;;16.94;61.73;100402.78;5046095;28;20551;-73
2022/06/14 00:28:12;;;;;;;;;;;;;;;16.94;62.02;100403.59;5021194;28;20041;-71
2022/06/14 00:30:39;;;;;;;4.30;2.00;;;;;;;16.91;61.64;100409.81;5046803;28;20371;-75
2022/06/14 00:33:05;;;;;;;2.60;1.67;;;;;;;16.81;62.62;100405.41;5038637;28;20065;-76
2022/06/14 00:35:31;;;;;;;2.88;2.00;;;;;;;16.83;62.45;100414.22;5036350;28;20060;-75
2022/06/14 00:37:57;;;;;;;3.15;1.90;;;;;;;16.79;62.80;100409.66;5017184;28;20045;-73
2022/06/14 00:40:26;;;;;;;5.88;2.03;;;;;;;16.84;62.10;100415.84;5036002;28;20038;-74
2022/06/14 00:42:52;;;;;;;2.15;1.67;;;;;;;16.92;61.77;100410.63;5050510;28;20036;-74
2022/06/14 00:45:18;;;;;;;4.97;2.00;;;;;;;16.96;61.93;100411.56;5047302;28;20083;-74
2022/06/14 00:47:46;;;;;;;3.03;1.83;;;;;;;16.94;61.83;100406.38;5042915;28;20040;-74
2022/06/14 00:50:18;;;;;;;1.95;1.60;;;;;;;16.95;62.26;100418.28;5019553;28;20048;-73
2022/06/14 00:52:50;;;;;;;5.82;1.60;;;;;;;16.99;61.89;100408.97;5032209;28;20037;-74
2022/06/14 00:55:31;;;;;;;2.65;1.75;;;;;;;17.02;61.82;100404.75;5020663;28;20653;-78
2022/06/14 00:58:03;;;;;;;3.25;1.60;;;;;;;17.06;61.62;100408.47;5023727;28;20114;-81
2022/06/14 01:00:32;;;;;;;3.50;1.85;;;;;;;17.05;61.50;100404.88;5047348;28;20040;-79
2022/06/14 01:02:59;;;;;;;;;;;;;;;17.08;61.87;100408.94;5048015;28;20450;-76
2022/06/14 01:08:35;;;;;;;4.25;1.60;;;;;;;17.13;61.98;100408.75;5036321;28;20045;-81
2022/06/14 01:11:02;;;;;;;1.95;1.38;;;;;;;17.17;61.70;100404.19;5049981;28;20044;-78
2022/06/14 01:13:28;;;;;;;3.95;1.55;;;;;;;17.21;61.49;100401.59;5032877;28;20045;-78
2022/06/14 01:15:54;;;;;;;1.70;1.60;;;;;;;17.22;61.58;100400.44;5048534;28;20037;-77
2022/06/14 01:18:20;;;;;;;2.33;1.83;;;;;;;17.21;61.81;100401.59;5032024;28;20060;-77
2022/06/14 01:20:45;;;;;;;1.60;1.50;;;;;;;17.12;62.12;100391.31;5050140;28;20051;-76
2022/06/14 01:23:13;;;;;;;1.88;1.63;;;;;;;17.07;62.39;100397.03;5050352;28;20044;-76
2022/06/14 01:25:48;;;;;;;2.20;1.55;;;;;;;17.10;62.21;100398.34;5026947;28;20515;-75
2022/06/14 01:28:14;;;;;;;3.90;1.67;;;;;;;17.06;62.58;100387.09;5031377;28;20044;-76
2022/06/14 01:30:45;;;;;;;2.85;1.58;;;;;;;17.07;62.46;100388.72;5029054;28;20507;-76
2022/06/14 01:33:26;;;;;;;1.88;1.55;;;;;;;16.99;62.65;100384.00;5024950;28;20094;-76
2022/06/14 01:36:00;;;;;;;2.13;1.42;;;;;;;17.01;62.65;100387.28;5042877;28;20044;-73
2022/06/14 01:38:26;;;;;;;2.25;1.50;;;;;;;17.01;62.87;100384.53;5049199;28;20478;-73
2022/06/14 01:41:13;;;;;;;2.40;1.73;;;;;;;16.94;63.07;100381.41;5035854;28;20527;-73
2022/06/14 01:43:54;;;;;;;2.63;1.55;;;;;;;17.02;63.13;100385.34;5032803;28;20572;-73
2022/06/14 01:46:28;;;;;;;3.42;1.52;;;;;;;16.96;63.04;100384.66;5050790;28;20064;-73
2022/06/14 01:52:17;;;;;;;2.67;1.30;;;;;;;17.01;63.29;100378.97;5050911;28;20037;-74
2022/06/14 01:55:04;;;;;;;5.03;1.33;;;;;;;17.08;63.25;100384.00;5033356;28;20045;-73
2022/06/14 01:57:32;;;;;;;2.47;1.30;;;;;;;17.16;62.94;100383.13;5032983;28;20060;-73
2022/06/14 02:00:09;;;;;;;4.07;1.80;;;;;;;17.09;63.37;100386.44;5024386;28;20121;-73
2022/06/14 02:05:57;;;;;;;3.05;1.40;;;;;;;16.88;63.87;100382.75;5027811;28;20044;-73
2022/06/14 02:08:24;;;;;;;2.88;1.40;;;;;;;16.83;64.01;100380.13;4996807;28;20041;-73
2022/06/14 02:11:03;;;;;;;1.60;1.50;;;;;;;16.90;64.16;100383.22;5024988;28;20056;-73
2022/06/14 02:13:33;;;;;;;5.93;1.80;;;;;;;16.80;64.38;100383.56;5020460;28;20060;-73
2022/06/14 02:16:05;;;;;;;1.70;1.60;;;;;;;16.67;65.00;100390.13;5002681;28;20189;-72
2022/06/14 02:18:37;;;;;;;2.05;1.60;;;;;;;16.58;65.23;100385.38;5021883;28;20066;-72
2022/06/14 02:21:09;;;;;;;4.43;1.95;;;;;;;16.61;65.35;100394.97;5037199;28;20067;-72
2022/06/14 02:23:39;;;;;;;2.28;1.75;;;;;;;16.61;65.76;100391.38;5023137;28;20101;-72
2022/06/14 02:26:13;;;;;;;1.83;1.60;;;;;;;16.70;66.48;100390.28;5009705;28;20045;-72
2022/06/14 02:28:42;;;;;;;5.22;1.58;;;;;;;16.85;65.81;100389.78;5028747;28;20048;-73
2022/06/14 02:31:50;;;;;;;3.13;1.55;;;;;;;16.88;65.83;100391.06;5021665;28;20076;-72
2022/06/14 02:34:27;;;;;;;2.58;1.50;;;;;;;16.88;66.06;100379.97;5025770;28;20048;-73
2022/06/14 02:37:01;;;;;;;4.07;1.50;;;;;;;16.98;65.73;100376.03;5044053;28;20048;-72
2022/06/14 02:39:39;;;;;;;2.80;1.58;;;;;;;17.18;65.30;100387.25;5003477;28;20052;-72
2022/06/14 02:42:11;;;;;;;2.40;1.38;;;;;;;17.15;65.26;100381.50;5029961;28;20041;-73
2022/06/14 02:44:41;;;;;;;3.78;1.48;;;;;;;16.97;65.55;100377.97;5028925;28;20044;-73
2022/06/14 02:47:10;;;;;;;2.75;1.48;;;;;;;17.00;65.44;100374.53;5018943;28;20091;-73
2022/06/14 02:49:47;;;;;;;1.80;1.60;;;;;;;17.14;64.91;100366.03;5027276;28;20065;-73
2022/06/14 02:52:17;;;;;;;2.55;1.48;;;;;;;17.08;64.98;100370.13;5019005;28;20044;-73
2022/06/14 02:54:49;;;;;;;4.32;1.55;;;;;;;17.05;65.73;100366.06;5029690;28;20049;-72
2022/06/14 02:57:39;;;;;;;2.15;1.50;;;;;;;17.25;64.95;100369.25;5027627;28;20053;-73
2022/06/14 03:00:10;;;;;;;4.20;1.48;;;;;;;17.37;64.62;100366.59;5029693;28;20174;-73
2022/06/14 03:02:50;;;;;;;2.45;1.90;;;;;;;17.29;64.59;100371.03;5031422;28;20037;-73
2022/06/14 03:05:25;;;;;;;1.88;1.38;;;;;;;17.48;64.18;100365.06;5022698;28;20083;-72
2022/06/14 03:08:04;;;;;;;2.22;1.50;;;;;;;17.70;63.04;100367.59;5034895;28;20055;-72
2022/06/14 03:10:59;;;;;;;3.53;1.38;;;;;;;17.67;63.37;100381.28;5034638;28;20044;-72
2022/06/14 03:13:38;;;;;;;2.38;1.35;;;;;;;17.76;63.28;100377.34;5023049;28;20044;-73
2022/06/14 03:16:07;;;;;;;2.47;1.35;;;;;;;17.61;63.22;100383.44;5031068;28;20045;-72
2022/06/14 03:18:39;;;;;;;3.13;1.35;;;;;;;17.48;63.92;100382.53;5042774;28;20064;-72
2022/06/14 03:21:11;;;;;;;1.80;1.13;;;;;;;17.57;63.68;100374.16;5034716;28;20041;-72
2022/06/14 03:23:42;;;;;;;4.63;1.40;;;;;;;17.68;63.47;100377.38;5040972;28;20080;-72
2022/06/14 03:26:30;;;;;;;2.17;1.33;;;;;;;17.76;63.10;100382.09;5042821;28;20033;-74
2022/06/14 03:29:10;;;;;;;2.92;1.50;;;;;;;17.86;62.61;100372.53;5028159;28;20167;-73
2022/06/14 03:31:47;;;;;;;2.38;1.42;;;;;;;17.86;62.61;100378.09;5045489;28;20069;-73
2022/06/14 03:34:38;;;;;;;3.40;1.42;;;;;;;17.94;63.09;100380.84;5042202;28;20091;-73
2022/06/14 03:37:04;;;;;;;3.80;1.30;;;;;;;18.14;61.88;100379.22;5036976;28;20419;-73
2022/06/14 03:39:35;;;;;;;4.65;1.30;;;;;;;18.43;61.38;100380.31;5017560;28;20530;-72
2022/06/14 03:42:04;;;;;;;4.00;1.25;;;;;;;18.67;60.51;100380.44;5031876;28;20492;-73
2022/06/14 03:44:30;;;;;;;5.63;1.40;;;;;;;18.62;60.03;100383.41;5043141;28;20037;-73
2022/06/14 03:47:15;;;;;;;3.85;1.20;;;;;;;18.51;60.10;100379.41;5014248;28;20044;-73
2022/06/14 03:49:45;;;;;;;3.50;1.45;;;;;;;18.47;60.27;100382.06;5041579;28;20072;-72
2022/06/14 03:52:17;;;;;;;4.03;1.33;;;;;;;18.53;60.41;100379.88;5033555;28;20033;-72
2022/06/14 03:55:04;;;;;;;4.10;1.25;;;;;;;18.69;59.40;100383.69;5040532;28;20033;-73
2022/06/14 03:58:00;;;;;;;1.17;0.98;;;;;;;18.64;59.46;100378.34;5038401;28;20118;-72
2022/06/14 04:00:29;;;;;;;3.25;1.30;;;;;;;18.67;59.42;100377.66;5039395;28;20045;-72
2022/06/14 04:03:08;;;;;;;;;;;;;;;18.86;58.72;100372.38;5036087;28;20415;-72
2022/06/14 04:05:59;;;;;;;4.20;1.05;;;;;;;18.81;58.85;100375.38;5044684;28;20341;-72
2022/06/14 04:08:46;;;;;;;2.85;1.33;;;;;;;18.82;58.86;100381.75;5051722;28;20073;-72
2022/06/14 04:11:21;;;;;;;1.85;1.20;;;;;;;18.83;58.95;100377.81;5034033;28;20632;-72
2022/06/14 04:14:01;;;;;;;1.98;1.50;;;;;;;18.78;58.57;100381.63;5038184;28;20036;-73
2022/06/14 04:16:30;;;;;;;3.63;1.25;;;;;;;18.60;58.77;100380.16;5037393;28;20071;-73
2022/06/14 04:19:20;;;;;;;1.30;1.20;;;;;;;18.57;59.07;100375.25;5051078;28;20044;-73
2022/06/14 04:22:01;;;;;;;3.22;1.10;;;;;;;18.62;58.60;100370.31;5044545;28;20147;-74
2022/06/14 04:24:34;;;;;;;3.20;1.02;;;;;;;18.54;58.69;100364.81;5028407;28;20067;-72
2022/06/14 04:27:18;;;;;;;2.35;1.10;;;;;;;18.50;58.38;100361.09;5020697;28;20060;-73
2022/06/14 04:30:05;;;;;;;2.25;1.25;;;;;;;18.37;58.15;100361.03;5031143;28;20392;-72
2022/06/14 04:32:36;;;;;;;4.13;1.20;;;;;;;18.30;58.85;100358.00;5039707;28;20503;-73
2022/06/14 04:35:02;;;;;;;1.45;0.95;;;;;;;18.35;58.30;100362.53;5033745;28;20045;-72
2022/06/14 04:37:33;;;;;;;2.33;1.00;;;;;;;18.38;58.44;100351.56;5048840;28;20040;-73
2022/06/14 04:40:16;;;;;;;1.80;1.08;;;;;;;18.36;58.14;100339.16;5020591;28;20068;-72
2022/06/14 04:42:50;;;;;;;3.15;1.20;;;;;;;18.23;58.09;100357.75;5050125;28;20487;-73
2022/06/14 04:45:21;;;;;;;1.50;1.13;;;;;;;18.08;58.71;100355.59;5017230;28;20098;-73
2022/06/14 04:48:15;;;;;;;1.58;0.98;;;;;;;18.13;58.18;100349.00;5015798;28;20046;-73
2022/06/14 04:50:45;;;;;;;2.05;1.00;;;;;;;18.11;58.21;100354.91;5024892;28;20050;-73
2022/06/14 04:53:24;;;;;;;2.30;1.35;;;;;;;18.15;57.92;100358.63;5032050;28;20033;-73
2022/06/14 04:56:21;;;;;;;2.65;1.10;;;;;;;18.19;58.35;100358.75;5016035;28;20117;-73
2022/06/14 04:58:54;;;;;;;1.85;1.17;;;;;;;18.28;58.08;100365.06;5028514;28;20041;-72
2022/06/14 05:01:24;;;;;;;2.45;1.30;;;;;;;18.17;56.95;100361.88;5051269;28;20037;-72
2022/06/14 05:03:57;;;;;;;1.73;1.50;;;;;;;17.94;58.03;100366.13;5018631;28;20041;-72
2022/06/14 05:06:28;;;;;;;3.78;1.30;;;;;;;18.00;57.90;100373.09;5028715;28;20073;-73
2022/06/14 05:09:02;;;;;;;2.75;1.38;;;;;;;18.01;57.83;100370.00;5043132;28;20056;-73
2022/06/14 05:11:36;;;;;;;1.70;1.15;;;;;;;18.09;58.02;100371.09;5032470;28;20041;-73
2022/06/14 05:14:16;;;;;;;3.25;1.33;;;;;;;18.10;57.98;100371.91;5048993;28;20484;-73
2022/06/14 05:17:00;;;;;;;2.38;1.40;;;;;;;18.20;57.93;100355.63;5021418;28;20049;-73
2022/06/14 05:19:25;;;;;;;4.50;1.50;;;;;;;18.44;57.60;100365.25;5045574;28;20055;-73
2022/06/14 05:21:59;;;;;;;2.05;1.17;;;;;;;18.50;57.37;100367.47;5048258;28;20135;-73
2022/06/14 05:24:26;;;;;;;1.40;1.20;;;;;;;18.48;57.55;100364.22;5024627;28;20076;-73
2022/06/14 05:27:16;;;;;;;4.38;1.20;;;;;;;18.46;56.43;100358.22;5033184;28;20091;-73
2022/06/14 05:30:04;;;;;;;1.70;0.95;;;;;;;18.33;56.38;100371.22;5047204;28;20037;-72
2022/06/14 05:32:39;;;;;;;1.75;1.00;;;;;;;18.15;56.80;100374.47;5044240;28;20037;-72
2022/06/14 05:35:23;;;;;;;1.00;1.00;;;;;;;18.00;56.68;100373.09;5041187;28;20087;-72
2022/06/14 05:37:55;;;;;;;1.55;1.05;;;;;;;17.97;57.19;100376.56;5029692;28;20044;-72
2022/06/14 05:40:27;;;;;;;2.67;1.45;;;;;;;17.93;56.35;100378.41;5034467;28;20076;-72
2022/06/14 05:43:10;;;;;;;1.73;0.98;;;;;;;17.85;56.51;100379.25;5039011;28;20068;-72
2022/06/14 05:45:42;;;;;;;1.90;1.20;;;;;;;17.81;57.00;100381.09;5028690;28;20033;-73
2022/06/14 05:48:09;;;;;;;3.28;1.30;;;;;;;17.73;56.56;100382.78;5019180;28;20037;-72
2022/06/14 05:50:41;;;;;;;2.63;0.95;;;;;;;17.61;57.53;100383.44;5031869;28;20076;-72
2022/06/14 05:53:28;;;;;;;1.48;0.93;;;;;;;17.68;57.46;100382.94;5047317;28;20484;-72
2022/06/14 05:55:58;;;;;;;2.85;1.42;;;;;;;17.76;57.26;100382.91;5029021;28;20048;-72
2022/06/14 05:58:31;;;;;;;3.00;1.02;;;;;;;17.89;56.66;100392.16;5025346;28;20054;-72
2022/06/14 06:01:06;;;;;;;1.48;1.20;;;;;;;17.91;57.10;100389.03;5026083;28;20033;-72
2022/06/14 06:03:41;;;;;;;2.05;1.25;;;;;;;17.81;57.01;100394.97;5024418;28;20500;-72
2022/06/14 06:06:25;;;;;;;2.67;1.17;;;;;;;17.69;57.53;100390.94;5018251;28;20037;-72
2022/06/14 06:08:57;;;;;;;4.10;1.35;;;;;;;17.75;57.70;100397.94;5032929;28;20049;-72
2022/06/14 06:11:29;;;;;;;2.95;1.17;;;;;;;17.87;57.86;100393.59;5050134;28;20043;-73
2022/06/14 06:14:07;;;;;;;1.58;1.13;;;;;;;17.97;57.77;100401.56;5018537;28;20037;-73
2022/06/14 06:17:18;;;;;;;3.03;1.27;;;;;;;18.12;57.22;100391.81;5046687;28;20040;-73
2022/06/14 06:19:56;;;;;;;2.33;1.20;;;;;;;18.18;57.59;100407.13;5012369;28;20045;-73
2022/06/14 06:22:36;;;;;;;3.13;1.13;;;;;;;18.29;57.28;100398.06;5014307;28;20041;-73
2022/06/14 06:25:11;;;;;;;1.95;1.25;;;;;;;18.45;57.43;100398.25;5021230;28;20042;-73
2022/06/14 06:28:04;;;;;;;2.47;1.20;;;;;;;18.61;57.00;100404.00;5012482;28;20045;-72
2022/06/14 06:30:44;;;;;;;3.97;1.50;;;;;;;18.72;56.53;100398.84;4987561;28;20042;-73
2022/06/14 06:33:12;;;;;;;1.63;1.20;;;;;;;18.74;56.22;100396.53;5035485;28;20048;-73
2022/06/14 06:36:01;;;;;;;;;;;;;;;18.71;56.61;100400.00;5047693;28;20035;-73
2022/06/14 06:39:08;;;;;;;1.67;1.23;;;;;;;18.58;56.81;100399.94;5012878;28;19956;-73
2022/06/14 06:41:50;;;;;;;2.33;1.45;;;;;;;18.52;56.61;100400.47;5034289;28;20049;-74
2022/06/14 06:44:29;;;;;;;5.10;1.42;;;;;;;18.44;57.02;100390.25;5033350;28;20545;-73
2022/06/14 06:47:30;;;;;;;3.42;1.33;;;;;;;18.50;57.14;100398.03;5053685;28;20032;-73
2022/06/14 06:50:27;;;;;;;2.08;1.20;;;;;;;18.60;57.14;100394.84;5033183;28;20076;-73
2022/06/14 06:53:12;;;;;;;2.95;1.25;;;;;;;18.66;56.76;100381.59;5035737;28;20041;-73
2022/06/14 06:55:53;;;;;;;1.50;1.23;;;;;;;18.67;56.72;100391.53;5052776;28;20116;-74
2022/06/14 06:58:24;;;;;;;2.97;1.45;;;;;;;18.68;57.03;100390.38;5036044;28;20499;-72
2022/06/14 07:00:54;;;;;;;3.47;1.42;;;;;;;18.66;56.97;100379.63;5053473;28;20039;-73
2022/06/14 07:03:25;;;;;;;3.47;1.63;;;;;;;18.77;57.03;100384.75;5045052;28;20037;-73
2022/06/14 07:05:53;;;;;;;5.43;1.80;;;;;;;18.87;57.16;100384.31;5019349;28;20036;-72
2022/06/14 07:08:27;;;;;;;5.37;1.63;;;;;;;18.92;56.24;100390.50;5036037;28;20044;-73
2022/06/14 07:10:54;;;;;;;4.63;1.60;;;;;;;18.90;56.70;100387.22;5035772;28;20037;-72
2022/06/14 07:13:32;;;;;;;2.58;1.60;;;;;;;18.93;56.11;100389.34;5034742;28;20043;-73
2022/06/14 07:16:07;;;;;;;9.47;2.30;;;;;;;19.05;56.05;100385.75;5021565;28;20033;-73
2022/06/14 07:18:42;;;;;;;2.55;1.60;;;;;;;19.04;55.75;100384.13;5034794;28;20412;-73
2022/06/14 07:21:09;;;;;;;1.67;1.48;;;;;;;19.00;55.35;100376.81;5035539;28;20052;-73
2022/06/14 07:23:57;;;;;;;3.50;1.92;;;;;;;18.92;55.91;100378.56;5024027;28;20044;-73
2022/06/14 07:26:23;;;;;;;2.60;1.63;;;;;;;18.77;56.18;100380.00;5041351;28;20033;-72
2022/06/14 07:29:15;;;;;;;6.05;2.28;;;;;;;18.81;56.32;100375.38;5052567;28;20190;-73
2022/06/14 07:31:44;;;;;;;4.88;1.67;;;;;;;18.84;56.16;100385.00;5042024;28;20037;-73
2022/06/14 07:34:11;;;;;;;3.78;1.70;;;;;;;18.87;55.88;100379.56;5051599;28;20037;-73
2022/06/14 07:36:58;;;;;;;3.38;2.10;;;;;;;18.81;55.80;100375.38;5052767;28;20029;-73
2022/06/14 07:39:27;;;;;;;2.78;1.45;;;;;;;18.83;56.25;100378.63;5052512;28;20049;-73
2022/06/14 07:42:17;;;;;;;5.05;1.73;;;;;;;18.97;55.91;100384.69;5044676;28;20033;-73
2022/06/14 07:44:42;;;;;;;5.95;1.83;;;;;;;19.02;55.92;100385.63;5050871;28;20037;-73
2022/06/14 07:47:29;;;;;;;4.22;1.90;;;;;;;19.13;56.02;100384.03;5045423;28;20520;-73
2022/06/14 07:50:17;;;;;;;3.00;2.03;;;;;;;19.26;55.98;100380.94;5053126;28;20040;-73
2022/06/14 07:52:49;;;;;;;4.45;2.08;;;;;;;19.33;55.67;100380.34;5041098;28;20126;-72
2022/06/14 07:55:34;;;;;;;8.63;2.78;;;;;;;19.15;55.92;100387.28;5045727;28;20518;-71
2022/06/14 07:58:06;;;;;;;3.85;2.20;;;;;;;19.12;56.06;100382.44;5035087;28;20190;-72
2022/06/14 08:03:48;;;;;;;4.35;2.25;;;;;;;19.17;55.53;100379.41;5024697;28;20045;-74
2022/06/14 08:06:35;;;;;;;4.13;2.40;;;;;;;19.11;56.39;100376.06;5026022;28;20045;-73
2022/06/14 08:09:10;;;;;;;7.50;3.05;;;;;;;19.11;56.19;100369.69;5021564;28;20072;-73
2022/06/14 08:11:49;;;;;;;8.52;4.25;;;;;;;19.14;56.28;100378.13;5019062;28;20052;-73
2022/06/14 08:14:50;;;;;;;11.18;4.68;;;;;;;19.01;56.60;100367.31;5030305;28;20045;-73
2022/06/14 08:17:21;;;;;;;4.97;3.42;;;;;;;18.91;57.01;100361.03;5016502;28;20037;-73
2022/06/14 08:19:55;;;;;;;6.45;3.72;;;;;;;18.90;57.09;100367.75;5032557;28;20496;-73
2022/06/14 08:22:28;;;;;;;7.93;4.43;;;;;;;18.91;57.21;100366.59;5026614;28;20136;-72
2022/06/14 08:25:00;;;;;;;6.82;3.65;;;;;;;18.93;56.91;100367.09;5052311;28;20127;-72
2022/06/14 08:27:35;;;;;;;11.35;3.10;;;;;;;18.93;56.29;100361.53;5028990;28;20040;-73
2022/06/14 08:30:06;;;;;;;7.85;3.88;;;;;;;18.95;56.32;100364.78;5029624;28;20033;-73
2022/06/14 08:33:15;;;;;;;5.47;2.85;;;;;;;18.95;56.27;100359.22;5031263;28;20033;-73
2022/06/14 08:35:49;;;;;;;6.28;3.55;;;;;;;18.90;56.01;100353.84;4980590;28;20046;-73
2022/06/14 08:38:18;;;;;;;6.75;3.72;;;;;;;18.84;55.71;100360.78;5019544;28;20038;-73
2022/06/14 08:41:13;;;;;;;7.65;4.00;;;;;;;18.78;55.61;100359.41;5032680;28;20041;-73
2022/06/14 08:43:49;;;;;;;6.38;3.50;;;;;;;18.68;55.83;100360.63;5039541;28;20110;-73
2022/06/14 08:46:21;;;;;;;5.53;3.70;;;;;;;18.70;55.91;100357.50;5051692;28;20025;-72
2022/06/14 08:49:10;;;;;;;8.43;3.35;;;;;;;18.77;55.82;100355.00;5056222;28;20628;-73
2022/06/14 08:52:14;;;;;;;4.90;2.90;;;;;;;18.80;55.63;100362.66;5029914;28;20037;-73
2022/06/14 08:55:06;;;;;;;6.65;3.45;;;;;;;18.82;55.62;100354.78;5049895;28;20736;-73
2022/06/14 08:58:04;;;;;;;8.48;4.22;;;;;;;18.86;55.35;100364.03;5012350;28;20057;-73
2022/06/14 09:00:44;;;;;;;5.68;3.03;;;;;;;18.91;55.68;100351.88;5017195;28;20037;-73
2022/06/14 09:03:19;;;;;;;4.57;3.33;;;;;;;18.97;55.37;100350.53;5027701;28;20072;-73
2022/06/14 09:06:24;;;;;;;8.63;3.75;;;;;;;19.03;55.04;100353.88;5050707;28;20052;-71
2022/06/14 09:08:49;;;;;;;5.93;3.30;;;;;;;19.11;54.92;100347.44;5041700;28;20419;-72
2022/06/14 09:11:18;;;;;;;6.43;3.33;;;;;;;19.15;55.35;100345.56;5040560;28;20033;-73
2022/06/14 09:13:55;;;;;;;5.25;3.05;;;;;;;19.18;54.76;100348.47;5049479;28;20045;-72
2022/06/14 09:16:33;;;;;;;6.72;3.22;;;;;;;19.16;54.48;100348.00;5036727;28;20083;-72
2022/06/14 09:19:17;;;;;;;9.60;3.42;;;;;;;19.14;54.66;100346.72;5023958;28;20496;-72
2022/06/14 09:22:07;;;;;;;3.95;2.30;;;;;;;19.10;54.52;100343.84;5030801;28;20049;-72
2022/06/14 09:25:15;;;;;;;9.85;3.58;;;;;;;19.12;54.13;100347.06;5034293;28;20044;-72
2022/06/14 09:27:56;;;;;;;6.60;2.95;;;;;;;18.98;54.00;100336.28;5010102;28;20060;-72
2022/06/14 09:30:39;;;;;;;2.40;2.08;;;;;;;18.85;53.98;100340.19;5046690;28;20500;-73
2022/06/14 09:33:22;;;;;;;6.40;3.53;;;;;;;18.79;54.53;100338.78;5027979;28;20500;-73
2022/06/14 09:36:08;;;;;;;4.82;2.85;;;;;;;18.83;54.72;100338.91;5042136;28;20040;-72
2022/06/14 09:38:59;;;;;;;4.05;1.98;;;;;;;18.80;53.72;100334.03;5022377;28;20036;-72
2022/06/14 09:41:45;;;;;;;3.45;2.45;;;;;;;18.79;54.49;100330.44;5030216;28;20037;-72
2022/06/14 09:44:20;;;;;;;2.30;1.80;;;;;;;18.84;54.06;100337.75;5053422;28;20082;-72
2022/06/14 09:46:54;;;;;;;4.32;2.20;;;;;;;18.73;54.19;100334.56;5024069;28;20468;-72
2022/06/14 09:49:39;;;;;;;4.78;1.80;;;;;;;18.71;54.44;100336.09;5047961;28;20741;-72
2022/06/14 09:52:27;;;;;;;5.03;2.20;;;;;;;18.77;54.11;100329.97;5039953;28;20496;-73
2022/06/14 09:55:17;;;;;;;5.35;1.70;;;;;;;18.75;54.11;100326.72;5025444;28;20048;-71
2022/06/14 09:58:01;;;;;;;8.73;2.67;;;;;;;18.79;54.70;100330.44;5033498;28;20075;-71
2022/06/14 10:00:38;;;;;;;3.17;1.92;;;;;;;18.78;54.54;100328.81;5038437;28;20101;-70
2022/06/14 10:03:25;;;;;;;4.38;2.28;;;;;;;18.81;54.74;100322.56;5046587;28;20571;-71
2022/06/14 10:06:08;;;;;;;5.45;2.17;;;;;;;18.84;54.26;100316.31;5043157;28;20037;-71
2022/06/14 10:09:00;;;;;;;4.38;1.92;;;;;;;18.86;54.16;100311.22;5042889;28;20073;-71
2022/06/14 10:11:39;;;;;;;3.95;2.13;;;;;;;18.93;54.18;100300.34;5037596;28;20606;-72
2022/06/14 10:14:27;;;;;;;1.58;1.48;;;;;;;19.03;54.18;100310.19;5032155;28;20052;-71
2022/06/14 10:17:01;;;;;;;1.98;1.67;;;;;;;19.08;54.06;100312.75;5038393;28;20119;-71
2022/06/14 10:19:48;;;;;;;3.28;2.10;;;;;;;19.10;53.76;100298.53;5021536;28;20530;-71
2022/06/14 10:22:38;;;;;;;4.70;2.00;;;;;;;19.15;53.33;100312.19;5029333;28;20498;-71
2022/06/14 10:25:11;;;;;;;3.25;1.70;;;;;;;19.10;52.72;100304.91;5031699;28;20041;-71
2022/06/14 10:30:40;;;;;;;3.90;2.20;;;;;;;19.06;52.90;100309.50;5035599;28;20044;-72
2022/06/14 10:33:23;;;;;;;4.05;1.92;;;;;;;19.03;52.06;100310.19;5029355;28;20044;-72
2022/06/14 10:36:08;;;;;;;3.33;1.80;;;;;;;19.00;51.74;100297.00;5042895;28;20411;-72
2022/06/14 10:38:49;;;;;;;3.20;1.92;;;;;;;19.01;52.43;100290.28;5034579;28;20066;-72
2022/06/14 10:41:38;;;;;;;6.30;2.28;;;;;;;19.05;52.16;100288.41;5020661;28;20045;-72
2022/06/14 10:44:28;;;;;;;3.47;1.83;;;;;;;19.10;52.39;100287.41;5053223;28;20044;-71
2022/06/14 10:47:25;;;;;;;3.38;1.60;;;;;;;19.10;52.16;100284.63;5048715;28;20048;-72
2022/06/14 10:50:15;;;;;;;3.30;1.85;;;;;;;19.07;51.94;100282.50;5042720;28;20512;-73
2022/06/14 10:53:04;;;;;;;5.63;2.15;;;;;;;19.01;52.12;100283.91;5016738;28;20463;-72
2022/06/14 10:56:00;;;;;;;2.42;1.50;;;;;;;18.98;52.76;100282.63;5024920;28;20064;-72
2022/06/14 10:58:32;;;;;;;2.50;1.55;;;;;;;19.00;52.08;100280.31;5073957;28;20091;-72
2022/06/14 11:01:30;;;;;;;8.43;1.83;;;;;;;19.05;52.02;100282.03;5056033;28;20119;-72
2022/06/14 11:03:55;;;;;;;2.00;1.60;;;;;;;19.01;51.65;100281.13;5054181;28;20044;-72
2022/06/14 11:06:53;;;;;;;8.55;1.65;;;;;;;18.97;51.79;100287.38;5053778;28;20135;-72
2022/06/14 11:09:31;;;;;;;2.88;1.60;;;;;;;18.99;51.77;100275.91;5013822;28;20049;-72
2022/06/14 11:12:10;;;;;;;2.33;1.40;;;;;;;19.06;51.32;100273.34;5019447;28;20606;-72
2022/06/14 11:14:47;;;;;;;3.65;1.90;;;;;;;19.07;51.06;100276.94;5036350;28;20120;-72
2022/06/14 11:17:23;;;;;;;4.47;1.63;;;;;;;19.00;51.44;100277.53;5054096;28;20052;-72
2022/06/14 11:20:17;;;;;;;2.70;1.73;;;;;;;19.03;51.52;100268.47;5053714;28;20451;-71
2022/06/14 11:22:48;;;;;;;2.88;1.85;;;;;;;19.07;51.73;100265.81;5053195;28;20044;-72
2022/06/14 11:25:32;;;;;;;3.40;1.70;;;;;;;19.12;52.38;100268.38;5053134;28;20401;-72
2022/06/14 11:28:11;;;;;;;7.15;2.00;;;;;;;19.11;52.03;100264.78;5053196;28;20045;-71
2022/06/14 11:30:49;;;;;;;2.80;1.63;;;;;;;19.12;52.46;100257.25;5035849;28;20045;-72
2022/06/14 11:33:33;;;;;;;5.53;2.40;;;;;;;19.08;52.91;100254.34;5050480;28;20523;-71
2022/06/14 11:36:09;;;;;;;1.80;1.60;;;;;;;19.04;53.19;100245.06;5034590;28;20341;-72
2022/06/14 11:38:53;;;;;;;5.07;1.80;;;;;;;19.03;53.41;100248.22;5053312;28;20132;-72
2022/06/14 11:41:22;;;;;;;3.65;1.85;;;;;;;18.93;53.41;100239.19;5053321;28;20048;-71
2022/06/14 11:44:12;;;;;;;2.58;1.95;;;;;;;18.88;53.83;100250.50;5035281;28;20037;-71
2022/06/14 11:47:02;;;;;;;2.88;1.95;;;;;;;18.89;53.93;100241.00;5035471;28;20057;-72
2022/06/14 11:49:37;;;;;;;4.68;2.08;;;;;;;18.81;54.27;100247.50;5019054;28;20049;-72
2022/06/14 11:52:11;;;;;;;3.97;2.25;;;;;;;18.70;55.24;100234.41;5036136;28;20037;-72
2022/06/14 11:54:54;;;;;;;4.03;2.00;;;;;;;18.50;55.95;100241.63;5028110;28;20180;-72
2022/06/14 11:57:35;;;;;;;4.40;2.50;;;;;;;18.35;56.49;100238.34;5048029;28;20068;-72
2022/06/14 12:00:07;;;;;;;5.68;3.28;;;;;;;18.22;57.31;100244.19;5030779;28;20639;-72
2022/06/14 12:03:18;;;;;;;4.40;2.22;;;;;;;18.04;59.80;100238.00;5016434;28;20094;-71
2022/06/14 12:06:08;;;;;;;5.00;2.78;;;;;;;17.82;59.58;100239.19;5032784;28;20452;-72
2022/06/14 12:08:52;;;;;;;4.43;2.13;;;;;;;17.67;60.58;100228.66;5015848;28;20095;-72
2022/06/14 12:11:24;;;;;;;6.35;2.55;;;;;;;17.64;62.23;100237.66;5026516;28;20118;-72
2022/06/14 12:14:15;;;;;;;3.50;1.95;;;;;;;17.61;61.67;100224.47;5052470;28;20459;-72
2022/06/14 12:16:44;;;;;;;2.22;1.73;;;;;;;17.64;61.46;100219.06;5034573;28;20098;-72
2022/06/14 12:19:12;;;;;;;3.05;2.50;;;;;;;17.68;61.33;100219.22;5018785;28;20056;-71
2022/06/14 12:22:28;;;;;;;2.13;1.77;;;;;;;17.69;60.73;100213.31;5052482;28;20044;-72
2022/06/14 12:28:17;;;;;;;6.15;1.80;;;;;;;17.83;59.57;100209.47;5029405;28;20045;-73
2022/06/14 12:30:43;;;;;;;4.25;2.10;;;;;;;17.91;59.46;100203.84;5029955;28;20044;-76
2022/06/14 12:33:20;;;;;;;5.05;2.10;;;;;;;17.97;59.50;100201.66;5029730;28;20120;-74
2022/06/14 12:36:08;;;;;;;2.50;1.92;;;;;;;18.06;58.75;100197.66;5029702;28;20127;-73